sensor_id;sensor_type;location;lat;lon;timestamp;P1;durP1;ratioP1;P2;durP2;ratioP2
11191;SDS011;5652;48.406;10.820;2022-08-14T00:00:06;5.40;;;4.00;;
11191;SDS011;5652;48.406;10.820;2022-08-14T00:02:33;6.47;;;3.80;;
11191;SDS011;5652;48.406;10.820;2022-08-14T00:05:02;5.30;;;3.58;;
11191;SDS011;5652;48.406;10.820;2022-08-14T00:07:30;4.35;;;3.58;;
11191;SDS011;5652;48.406;10.820;2022-08-14T00:09:59;5.65;;;3.50;;
11191;SDS011;5652;48.406;10.820;2022-08-14T00:12:27;4.53;;;3.80;;
11191;SDS011;5652;48.406;10.820;2022-08-14T00:14:54;5.55;;;4.22;;
11191;SDS011;5652;48.406;10.820;2022-08-14T00:17:21;6.90;;;4.20;;
11191;SDS011;5652;48.406;10.820;2022-08-14T00:19:48;8.52;;;4.30;;
11191;SDS011;5652;48.406;10.820;2022-08-14T00:22:17;6.13;;;4.70;;
11191;SDS011;5652;48.406;10.820;2022-08-14T00:24:44;6.72;;;4.88;;
11191;SDS011;5652;48.406;10.820;2022-08-14T00:27:12;5.73;;;4.63;;
11191;SDS011;5652;48.406;10.820;2022-08-14T00:29:39;6.82;;;4.70;;
11191;SDS011;5652;48.406;10.820;2022-08-14T00:32:06;6.38;;;4.85;;
11191;SDS011;5652;48.406;10.820;2022-08-14T00:34:33;6.00;;;4.55;;
11191;SDS011;5652;48.406;10.820;2022-08-14T00:37:01;7.20;;;5.38;;
11191;SDS011;5652;48.406;10.820;2022-08-14T00:39:31;7.25;;;5.28;;
11191;SDS011;5652;48.406;10.820;2022-08-14T00:41:58;9.73;;;5.18;;
11191;SDS011;5652;48.406;10.820;2022-08-14T00:44:25;6.27;;;4.73;;
11191;SDS011;5652;48.406;10.820;2022-08-14T00:46:54;7.18;;;4.70;;
11191;SDS011;5652;48.406;10.820;2022-08-14T00:49:21;6.70;;;4.60;;
11191;SDS011;5652;48.406;10.820;2022-08-14T00:51:48;5.80;;;4.90;;
11191;SDS011;5652;48.406;10.820;2022-08-14T00:54:15;6.13;;;4.70;;
11191;SDS011;5652;48.406;10.820;2022-08-14T00:56:45;6.18;;;4.47;;
11191;SDS011;5652;48.406;10.820;2022-08-14T00:59:13;6.10;;;4.68;;
11191;SDS011;5652;48.406;10.820;2022-08-14T01:01:40;5.35;;;4.40;;
11191;SDS011;5652;48.406;10.820;2022-08-14T01:04:07;5.97;;;4.75;;
11191;SDS011;5652;48.406;10.820;2022-08-14T01:06:34;7.55;;;5.07;;
11191;SDS011;5652;48.406;10.820;2022-08-14T01:09:01;5.55;;;4.47;;
11191;SDS011;5652;48.406;10.820;2022-08-14T01:11:30;7.57;;;5.10;;
11191;SDS011;5652;48.406;10.820;2022-08-14T01:13:59;10.65;;;5.10;;
11191;SDS011;5652;48.406;10.820;2022-08-14T01:16:26;5.38;;;4.55;;
11191;SDS011;5652;48.406;10.820;2022-08-14T01:18:56;6.75;;;4.90;;
11191;SDS011;5652;48.406;10.820;2022-08-14T01:21:42;5.32;;;4.43;;
11191;SDS011;5652;48.406;10.820;2022-08-14T01:24:11;5.68;;;4.60;;
11191;SDS011;5652;48.406;10.820;2022-08-14T01:26:39;7.82;;;4.50;;
11191;SDS011;5652;48.406;10.820;2022-08-14T01:29:08;5.30;;;4.43;;
11191;SDS011;5652;48.406;10.820;2022-08-14T01:31:36;7.05;;;5.15;;
11191;SDS011;5652;48.406;10.820;2022-08-14T01:34:06;10.20;;;4.75;;
11191;SDS011;5652;48.406;10.820;2022-08-14T01:36:34;8.65;;;5.10;;
11191;SDS011;5652;48.406;10.820;2022-08-14T01:39:04;8.07;;;4.65;;
11191;SDS011;5652;48.406;10.820;2022-08-14T01:41:32;6.75;;;4.70;;
11191;SDS011;5652;48.406;10.820;2022-08-14T01:44:02;7.70;;;4.80;;
11191;SDS011;5652;48.406;10.820;2022-08-14T01:46:31;4.80;;;4.22;;
11191;SDS011;5652;48.406;10.820;2022-08-14T01:48:58;5.07;;;4.25;;
11191;SDS011;5652;48.406;10.820;2022-08-14T01:51:26;6.40;;;4.25;;
11191;SDS011;5652;48.406;10.820;2022-08-14T01:53:56;4.88;;;4.03;;
11191;SDS011;5652;48.406;10.820;2022-08-14T01:56:26;6.25;;;4.35;;
11191;SDS011;5652;48.406;10.820;2022-08-14T01:58:59;5.17;;;4.10;;
11191;SDS011;5652;48.406;10.820;2022-08-14T02:01:27;6.72;;;4.40;;
11191;SDS011;5652;48.406;10.820;2022-08-14T02:03:55;4.80;;;4.15;;
11191;SDS011;5652;48.406;10.820;2022-08-14T02:06:22;6.60;;;4.35;;
11191;SDS011;5652;48.406;10.820;2022-08-14T02:08:51;4.93;;;3.92;;
11191;SDS011;5652;48.406;10.820;2022-08-14T02:11:19;4.95;;;4.07;;
11191;SDS011;5652;48.406;10.820;2022-08-14T02:13:53;5.47;;;4.05;;
11191;SDS011;5652;48.406;10.820;2022-08-14T02:16:24;5.03;;;4.27;;
11191;SDS011;5652;48.406;10.820;2022-08-14T02:18:52;5.32;;;4.55;;
11191;SDS011;5652;48.406;10.820;2022-08-14T02:21:20;6.90;;;4.30;;
11191;SDS011;5652;48.406;10.820;2022-08-14T02:23:47;5.38;;;4.30;;
11191;SDS011;5652;48.406;10.820;2022-08-14T02:26:18;10.73;;;6.72;;
11191;SDS011;5652;48.406;10.820;2022-08-14T02:28:46;6.88;;;5.22;;
11191;SDS011;5652;48.406;10.820;2022-08-14T02:31:16;8.40;;;5.28;;
11191;SDS011;5652;48.406;10.820;2022-08-14T02:33:44;6.70;;;5.10;;
11191;SDS011;5652;48.406;10.820;2022-08-14T02:36:12;6.50;;;4.63;;
11191;SDS011;5652;48.406;10.820;2022-08-14T02:38:40;7.07;;;5.20;;
11191;SDS011;5652;48.406;10.820;2022-08-14T02:41:08;5.80;;;4.60;;
11191;SDS011;5652;48.406;10.820;2022-08-14T02:43:35;6.43;;;4.95;;
11191;SDS011;5652;48.406;10.820;2022-08-14T02:46:03;5.13;;;4.63;;
11191;SDS011;5652;48.406;10.820;2022-08-14T02:48:38;5.13;;;4.55;;
11191;SDS011;5652;48.406;10.820;2022-08-14T02:51:06;5.20;;;4.67;;
11191;SDS011;5652;48.406;10.820;2022-08-14T02:53:34;5.90;;;4.40;;
11191;SDS011;5652;48.406;10.820;2022-08-14T02:56:05;5.70;;;4.60;;
11191;SDS011;5652;48.406;10.820;2022-08-14T02:58:33;7.35;;;4.35;;
11191;SDS011;5652;48.406;10.820;2022-08-14T03:01:03;4.45;;;4.05;;
11191;SDS011;5652;48.406;10.820;2022-08-14T03:03:31;5.80;;;4.35;;
11191;SDS011;5652;48.406;10.820;2022-08-14T03:05:59;5.78;;;4.28;;
11191;SDS011;5652;48.406;10.820;2022-08-14T03:08:26;6.15;;;4.20;;
11191;SDS011;5652;48.406;10.820;2022-08-14T03:10:56;8.07;;;4.30;;
11191;SDS011;5652;48.406;10.820;2022-08-14T03:13:23;5.25;;;4.30;;
11191;SDS011;5652;48.406;10.820;2022-08-14T03:15:51;6.30;;;4.47;;
11191;SDS011;5652;48.406;10.820;2022-08-14T03:18:19;6.15;;;4.72;;
11191;SDS011;5652;48.406;10.820;2022-08-14T03:20:48;6.03;;;4.88;;
11191;SDS011;5652;48.406;10.820;2022-08-14T03:23:16;6.03;;;4.80;;
11191;SDS011;5652;48.406;10.820;2022-08-14T03:25:44;6.18;;;4.90;;
11191;SDS011;5652;48.406;10.820;2022-08-14T03:28:12;6.75;;;5.28;;
11191;SDS011;5652;48.406;10.820;2022-08-14T03:30:39;5.75;;;4.68;;
11191;SDS011;5652;48.406;10.820;2022-08-14T03:33:07;5.35;;;4.85;;
11191;SDS011;5652;48.406;10.820;2022-08-14T03:35:34;9.65;;;5.00;;
11191;SDS011;5652;48.406;10.820;2022-08-14T03:38:04;5.80;;;4.30;;
11191;SDS011;5652;48.406;10.820;2022-08-14T03:40:35;6.78;;;4.65;;
11191;SDS011;5652;48.406;10.820;2022-08-14T03:43:04;5.38;;;4.28;;
11191;SDS011;5652;48.406;10.820;2022-08-14T03:45:34;5.43;;;4.70;;
11191;SDS011;5652;48.406;10.820;2022-08-14T03:48:02;6.63;;;4.80;;
11191;SDS011;5652;48.406;10.820;2022-08-14T03:50:30;5.53;;;4.80;;
11191;SDS011;5652;48.406;10.820;2022-08-14T03:52:59;7.35;;;5.22;;
11191;SDS011;5652;48.406;10.820;2022-08-14T03:55:26;7.27;;;5.57;;
11191;SDS011;5652;48.406;10.820;2022-08-14T03:57:55;7.20;;;5.07;;
11191;SDS011;5652;48.406;10.820;2022-08-14T04:00:22;6.35;;;5.32;;
11191;SDS011;5652;48.406;10.820;2022-08-14T04:02:49;7.68;;;5.22;;
11191;SDS011;5652;48.406;10.820;2022-08-14T04:05:16;8.38;;;5.47;;
11191;SDS011;5652;48.406;10.820;2022-08-14T04:07:43;8.77;;;5.80;;
11191;SDS011;5652;48.406;10.820;2022-08-14T04:10:11;7.43;;;5.30;;
11191;SDS011;5652;48.406;10.820;2022-08-14T04:12:38;7.78;;;5.72;;
11191;SDS011;5652;48.406;10.820;2022-08-14T04:15:07;7.50;;;5.90;;
11191;SDS011;5652;48.406;10.820;2022-08-14T04:17:35;7.68;;;5.75;;
11191;SDS011;5652;48.406;10.820;2022-08-14T04:20:03;7.07;;;5.97;;
11191;SDS011;5652;48.406;10.820;2022-08-14T04:22:31;7.33;;;5.50;;
11191;SDS011;5652;48.406;10.820;2022-08-14T04:24:59;7.00;;;5.68;;
11191;SDS011;5652;48.406;10.820;2022-08-14T04:27:27;7.93;;;5.60;;
11191;SDS011;5652;48.406;10.820;2022-08-14T04:29:54;6.18;;;5.15;;
11191;SDS011;5652;48.406;10.820;2022-08-14T04:32:23;7.20;;;5.40;;
11191;SDS011;5652;48.406;10.820;2022-08-14T04:34:53;7.50;;;5.20;;
11191;SDS011;5652;48.406;10.820;2022-08-14T04:37:21;5.97;;;4.75;;
11191;SDS011;5652;48.406;10.820;2022-08-14T04:40:06;5.85;;;5.25;;
11191;SDS011;5652;48.406;10.820;2022-08-14T04:43:00;7.30;;;5.00;;
11191;SDS011;5652;48.406;10.820;2022-08-14T04:45:45;5.93;;;4.57;;
11191;SDS011;5652;48.406;10.820;2022-08-14T04:48:15;5.53;;;4.90;;
11191;SDS011;5652;48.406;10.820;2022-08-14T04:50:46;7.78;;;4.75;;
11191;SDS011;5652;48.406;10.820;2022-08-14T04:53:14;5.93;;;5.20;;
11191;SDS011;5652;48.406;10.820;2022-08-14T04:55:42;6.70;;;4.90;;
11191;SDS011;5652;48.406;10.820;2022-08-14T04:58:12;6.07;;;4.83;;
11191;SDS011;5652;48.406;10.820;2022-08-14T05:00:39;6.18;;;5.10;;
11191;SDS011;5652;48.406;10.820;2022-08-14T05:03:08;6.90;;;4.72;;
11191;SDS011;5652;48.406;10.820;2022-08-14T05:05:36;6.97;;;5.10;;
11191;SDS011;5652;48.406;10.820;2022-08-14T05:08:05;6.40;;;4.80;;
11191;SDS011;5652;48.406;10.820;2022-08-14T05:10:34;5.55;;;4.63;;
11191;SDS011;5652;48.406;10.820;2022-08-14T05:13:01;7.10;;;5.38;;
11191;SDS011;5652;48.406;10.820;2022-08-14T05:15:29;5.90;;;4.95;;
11191;SDS011;5652;48.406;10.820;2022-08-14T05:17:56;5.60;;;4.80;;
11191;SDS011;5652;48.406;10.820;2022-08-14T05:20:26;5.68;;;5.00;;
11191;SDS011;5652;48.406;10.820;2022-08-14T05:22:55;5.82;;;4.65;;
11191;SDS011;5652;48.406;10.820;2022-08-14T05:25:23;5.45;;;4.53;;
11191;SDS011;5652;48.406;10.820;2022-08-14T05:27:50;5.57;;;4.50;;
11191;SDS011;5652;48.406;10.820;2022-08-14T05:30:17;6.40;;;5.07;;
11191;SDS011;5652;48.406;10.820;2022-08-14T05:32:45;5.55;;;4.75;;
11191;SDS011;5652;48.406;10.820;2022-08-14T05:35:12;5.20;;;4.50;;
11191;SDS011;5652;48.406;10.820;2022-08-14T05:37:39;5.10;;;4.45;;
11191;SDS011;5652;48.406;10.820;2022-08-14T05:40:08;5.95;;;4.70;;
11191;SDS011;5652;48.406;10.820;2022-08-14T05:42:36;5.50;;;4.45;;
11191;SDS011;5652;48.406;10.820;2022-08-14T05:45:03;7.63;;;5.25;;
11191;SDS011;5652;48.406;10.820;2022-08-14T05:47:31;5.85;;;5.10;;
11191;SDS011;5652;48.406;10.820;2022-08-14T05:49:59;7.50;;;5.30;;
11191;SDS011;5652;48.406;10.820;2022-08-14T05:52:26;5.53;;;4.90;;
11191;SDS011;5652;48.406;10.820;2022-08-14T05:54:54;5.57;;;4.90;;
11191;SDS011;5652;48.406;10.820;2022-08-14T05:57:23;5.50;;;4.93;;
11191;SDS011;5652;48.406;10.820;2022-08-14T05:59:51;5.38;;;4.38;;
11191;SDS011;5652;48.406;10.820;2022-08-14T06:02:18;5.53;;;4.70;;
11191;SDS011;5652;48.406;10.820;2022-08-14T06:04:45;5.63;;;4.45;;
11191;SDS011;5652;48.406;10.820;2022-08-14T06:07:13;4.70;;;4.20;;
11191;SDS011;5652;48.406;10.820;2022-08-14T06:09:40;5.35;;;4.30;;
11191;SDS011;5652;48.406;10.820;2022-08-14T06:12:07;8.32;;;4.20;;
11191;SDS011;5652;48.406;10.820;2022-08-14T06:14:36;6.72;;;4.30;;
11191;SDS011;5652;48.406;10.820;2022-08-14T06:17:03;5.60;;;4.50;;
11191;SDS011;5652;48.406;10.820;2022-08-14T06:19:31;5.65;;;4.30;;
11191;SDS011;5652;48.406;10.820;2022-08-14T06:21:59;4.82;;;4.40;;
11191;SDS011;5652;48.406;10.820;2022-08-14T06:24:26;6.90;;;4.50;;
11191;SDS011;5652;48.406;10.820;2022-08-14T06:26:53;7.63;;;4.70;;
11191;SDS011;5652;48.406;10.820;2022-08-14T06:29:20;5.67;;;4.73;;
11191;SDS011;5652;48.406;10.820;2022-08-14T06:31:48;5.53;;;4.80;;
11191;SDS011;5652;48.406;10.820;2022-08-14T06:34:16;5.43;;;4.60;;
11191;SDS011;5652;48.406;10.820;2022-08-14T06:36:43;4.73;;;4.30;;
11191;SDS011;5652;48.406;10.820;2022-08-14T06:39:10;5.03;;;4.43;;
11191;SDS011;5652;48.406;10.820;2022-08-14T06:41:38;5.45;;;4.50;;
11191;SDS011;5652;48.406;10.820;2022-08-14T06:44:06;5.38;;;4.40;;
11191;SDS011;5652;48.406;10.820;2022-08-14T06:46:33;5.60;;;4.60;;
11191;SDS011;5652;48.406;10.820;2022-08-14T06:49:02;6.20;;;4.70;;
11191;SDS011;5652;48.406;10.820;2022-08-14T06:51:29;6.68;;;4.80;;
11191;SDS011;5652;48.406;10.820;2022-08-14T06:53:56;5.80;;;5.00;;
11191;SDS011;5652;48.406;10.820;2022-08-14T06:56:23;5.60;;;4.90;;
11191;SDS011;5652;48.406;10.820;2022-08-14T06:58:50;5.22;;;4.53;;
11191;SDS011;5652;48.406;10.820;2022-08-14T07:01:17;5.80;;;4.60;;
11191;SDS011;5652;48.406;10.820;2022-08-14T07:04:03;5.25;;;4.70;;
11191;SDS011;5652;48.406;10.820;2022-08-14T07:06:48;6.40;;;4.57;;
11191;SDS011;5652;48.406;10.820;2022-08-14T07:09:15;5.38;;;4.80;;
11191;SDS011;5652;48.406;10.820;2022-08-14T07:11:42;6.25;;;4.88;;
11191;SDS011;5652;48.406;10.820;2022-08-14T07:14:10;5.43;;;4.40;;
11191;SDS011;5652;48.406;10.820;2022-08-14T07:16:37;5.38;;;4.43;;
11191;SDS011;5652;48.406;10.820;2022-08-14T07:19:07;5.22;;;4.18;;
11191;SDS011;5652;48.406;10.820;2022-08-14T07:21:35;4.78;;;3.90;;
11191;SDS011;5652;48.406;10.820;2022-08-14T07:24:03;5.50;;;3.70;;
11191;SDS011;5652;48.406;10.820;2022-08-14T07:26:30;6.07;;;3.50;;
11191;SDS011;5652;48.406;10.820;2022-08-14T07:28:57;4.93;;;3.50;;
11191;SDS011;5652;48.406;10.820;2022-08-14T07:31:24;5.05;;;2.83;;
11191;SDS011;5652;48.406;10.820;2022-08-14T07:33:52;3.88;;;2.85;;
11191;SDS011;5652;48.406;10.820;2022-08-14T07:36:20;4.30;;;3.13;;
11191;SDS011;5652;48.406;10.820;2022-08-14T07:38:47;3.60;;;2.85;;
11191;SDS011;5652;48.406;10.820;2022-08-14T07:41:14;3.13;;;2.70;;
11191;SDS011;5652;48.406;10.820;2022-08-14T07:43:42;3.17;;;2.45;;
11191;SDS011;5652;48.406;10.820;2022-08-14T07:46:09;4.90;;;2.50;;
11191;SDS011;5652;48.406;10.820;2022-08-14T07:48:37;2.45;;;2.20;;
11191;SDS011;5652;48.406;10.820;2022-08-14T07:51:05;2.92;;;2.53;;
11191;SDS011;5652;48.406;10.820;2022-08-14T07:53:33;3.20;;;2.67;;
11191;SDS011;5652;48.406;10.820;2022-08-14T07:56:00;2.85;;;2.40;;
11191;SDS011;5652;48.406;10.820;2022-08-14T07:58:27;2.30;;;2.10;;
11191;SDS011;5652;48.406;10.820;2022-08-14T08:00:55;2.30;;;2.10;;
11191;SDS011;5652;48.406;10.820;2022-08-14T08:03:22;2.72;;;2.22;;
11191;SDS011;5652;48.406;10.820;2022-08-14T08:05:51;4.93;;;2.40;;
11191;SDS011;5652;48.406;10.820;2022-08-14T08:08:19;2.90;;;2.20;;
11191;SDS011;5652;48.406;10.820;2022-08-14T08:10:48;3.17;;;2.05;;
11191;SDS011;5652;48.406;10.820;2022-08-14T08:13:16;3.10;;;2.00;;
11191;SDS011;5652;48.406;10.820;2022-08-14T08:15:45;2.70;;;2.30;;
11191;SDS011;5652;48.406;10.820;2022-08-14T08:18:12;2.53;;;2.17;;
11191;SDS011;5652;48.406;10.820;2022-08-14T08:20:40;4.32;;;2.20;;
11191;SDS011;5652;48.406;10.820;2022-08-14T08:23:09;2.30;;;2.10;;
11191;SDS011;5652;48.406;10.820;2022-08-14T08:25:37;3.67;;;2.03;;
11191;SDS011;5652;48.406;10.820;2022-08-14T08:28:07;3.05;;;2.00;;
11191;SDS011;5652;48.406;10.820;2022-08-14T08:30:35;3.45;;;2.10;;
11191;SDS011;5652;48.406;10.820;2022-08-14T08:33:03;4.73;;;2.13;;
11191;SDS011;5652;48.406;10.820;2022-08-14T08:35:31;3.10;;;1.97;;
11191;SDS011;5652;48.406;10.820;2022-08-14T08:38:01;3.33;;;2.03;;
11191;SDS011;5652;48.406;10.820;2022-08-14T08:40:29;2.30;;;2.03;;
11191;SDS011;5652;48.406;10.820;2022-08-14T08:42:59;3.00;;;2.20;;
11191;SDS011;5652;48.406;10.820;2022-08-14T08:45:28;2.30;;;2.10;;
11191;SDS011;5652;48.406;10.820;2022-08-14T08:47:55;2.40;;;2.20;;
11191;SDS011;5652;48.406;10.820;2022-08-14T08:50:23;2.40;;;2.03;;
11191;SDS011;5652;48.406;10.820;2022-08-14T08:52:54;2.35;;;2.03;;
11191;SDS011;5652;48.406;10.820;2022-08-14T08:55:32;2.38;;;1.95;;
11191;SDS011;5652;48.406;10.820;2022-08-14T08:58:00;2.55;;;2.10;;
11191;SDS011;5652;48.406;10.820;2022-08-14T09:00:30;2.40;;;2.00;;
11191;SDS011;5652;48.406;10.820;2022-08-14T09:03:00;3.30;;;2.30;;
11191;SDS011;5652;48.406;10.820;2022-08-14T09:05:28;2.95;;;2.03;;
11191;SDS011;5652;48.406;10.820;2022-08-14T09:08:07;2.60;;;2.00;;
11191;SDS011;5652;48.406;10.820;2022-08-14T09:10:35;4.23;;;2.17;;
11191;SDS011;5652;48.406;10.820;2022-08-14T09:13:02;3.90;;;2.13;;
11191;SDS011;5652;48.406;10.820;2022-08-14T09:15:30;3.38;;;2.20;;
11191;SDS011;5652;48.406;10.820;2022-08-14T09:17:58;2.55;;;2.20;;
11191;SDS011;5652;48.406;10.820;2022-08-14T09:20:26;3.80;;;2.07;;
11191;SDS011;5652;48.406;10.820;2022-08-14T09:22:53;2.95;;;2.05;;
11191;SDS011;5652;48.406;10.820;2022-08-14T09:25:21;2.97;;;2.03;;
11191;SDS011;5652;48.406;10.820;2022-08-14T09:27:48;2.75;;;2.30;;
11191;SDS011;5652;48.406;10.820;2022-08-14T09:30:15;2.60;;;2.22;;
11191;SDS011;5652;48.406;10.820;2022-08-14T09:32:52;2.23;;;2.03;;
11191;SDS011;5652;48.406;10.820;2022-08-14T09:35:22;2.80;;;2.03;;
11191;SDS011;5652;48.406;10.820;2022-08-14T09:37:53;2.30;;;2.10;;
11191;SDS011;5652;48.406;10.820;2022-08-14T09:40:23;2.45;;;2.10;;
11191;SDS011;5652;48.406;10.820;2022-08-14T09:42:56;4.35;;;2.20;;
11191;SDS011;5652;48.406;10.820;2022-08-14T09:45:28;2.33;;;2.13;;
11191;SDS011;5652;48.406;10.820;2022-08-14T09:47:58;4.55;;;2.05;;
11191;SDS011;5652;48.406;10.820;2022-08-14T09:50:25;3.53;;;2.20;;
11191;SDS011;5652;48.406;10.820;2022-08-14T09:52:55;2.38;;;2.17;;
11191;SDS011;5652;48.406;10.820;2022-08-14T09:55:22;3.50;;;2.30;;
11191;SDS011;5652;48.406;10.820;2022-08-14T09:57:50;3.58;;;2.10;;
11191;SDS011;5652;48.406;10.820;2022-08-14T10:00:18;2.70;;;2.20;;
11191;SDS011;5652;48.406;10.820;2022-08-14T10:02:52;2.38;;;2.17;;
11191;SDS011;5652;48.406;10.820;2022-08-14T10:05:30;2.55;;;2.20;;
11191;SDS011;5652;48.406;10.820;2022-08-14T10:07:58;2.95;;;2.15;;
11191;SDS011;5652;48.406;10.820;2022-08-14T10:10:26;2.55;;;2.20;;
11191;SDS011;5652;48.406;10.820;2022-08-14T10:12:54;4.80;;;2.30;;
11191;SDS011;5652;48.406;10.820;2022-08-14T10:15:22;2.83;;;2.33;;
11191;SDS011;5652;48.406;10.820;2022-08-14T10:18:02;2.92;;;2.40;;
11191;SDS011;5652;48.406;10.820;2022-08-14T10:20:33;4.20;;;2.40;;
11191;SDS011;5652;48.406;10.820;2022-08-14T10:23:13;2.50;;;2.30;;
11191;SDS011;5652;48.406;10.820;2022-08-14T10:25:41;2.42;;;2.17;;
11191;SDS011;5652;48.406;10.820;2022-08-14T10:28:09;2.58;;;2.30;;
11191;SDS011;5652;48.406;10.820;2022-08-14T10:30:39;2.28;;;2.08;;
11191;SDS011;5652;48.406;10.820;2022-08-14T10:33:22;3.67;;;2.40;;
11191;SDS011;5652;48.406;10.820;2022-08-14T10:35:50;2.47;;;2.28;;
11191;SDS011;5652;48.406;10.820;2022-08-14T10:38:27;2.40;;;2.20;;
11191;SDS011;5652;48.406;10.820;2022-08-14T10:41:07;2.90;;;2.20;;
11191;SDS011;5652;48.406;10.820;2022-08-14T10:43:36;3.00;;;2.13;;
11191;SDS011;5652;48.406;10.820;2022-08-14T10:46:10;4.68;;;2.20;;
11191;SDS011;5652;48.406;10.820;2022-08-14T10:48:38;5.78;;;2.35;;
11191;SDS011;5652;48.406;10.820;2022-08-14T10:51:06;4.47;;;2.10;;
11191;SDS011;5652;48.406;10.820;2022-08-14T10:53:34;2.30;;;2.10;;
11191;SDS011;5652;48.406;10.820;2022-08-14T10:56:08;3.70;;;2.50;;
11191;SDS011;5652;48.406;10.820;2022-08-14T10:58:35;3.00;;;2.50;;
11191;SDS011;5652;48.406;10.820;2022-08-14T11:01:02;2.93;;;2.50;;
11191;SDS011;5652;48.406;10.820;2022-08-14T11:03:38;3.17;;;2.20;;
11191;SDS011;5652;48.406;10.820;2022-08-14T11:06:15;3.20;;;2.50;;
11191;SDS011;5652;48.406;10.820;2022-08-14T11:08:44;2.90;;;2.22;;
11191;SDS011;5652;48.406;10.820;2022-08-14T11:11:11;2.53;;;2.20;;
11191;SDS011;5652;48.406;10.820;2022-08-14T11:13:39;2.90;;;2.30;;
11191;SDS011;5652;48.406;10.820;2022-08-14T11:16:08;2.60;;;2.30;;
11191;SDS011;5652;48.406;10.820;2022-08-14T11:18:35;2.45;;;2.15;;
11191;SDS011;5652;48.406;10.820;2022-08-14T11:21:03;3.72;;;2.50;;
11191;SDS011;5652;48.406;10.820;2022-08-14T11:23:33;2.50;;;2.10;;
11191;SDS011;5652;48.406;10.820;2022-08-14T11:26:02;2.53;;;2.10;;
11191;SDS011;5652;48.406;10.820;2022-08-14T11:28:31;3.17;;;2.20;;
11191;SDS011;5652;48.406;10.820;2022-08-14T11:30:58;2.35;;;2.10;;
11191;SDS011;5652;48.406;10.820;2022-08-14T11:33:26;3.30;;;2.30;;
11191;SDS011;5652;48.406;10.820;2022-08-14T11:35:56;2.53;;;2.25;;
11191;SDS011;5652;48.406;10.820;2022-08-14T11:38:24;2.40;;;2.20;;
11191;SDS011;5652;48.406;10.820;2022-08-14T11:40:54;2.60;;;2.25;;
11191;SDS011;5652;48.406;10.820;2022-08-14T11:43:22;2.63;;;2.43;;
11191;SDS011;5652;48.406;10.820;2022-08-14T11:45:49;2.80;;;2.28;;
11191;SDS011;5652;48.406;10.820;2022-08-14T11:48:17;3.00;;;2.10;;
11191;SDS011;5652;48.406;10.820;2022-08-14T11:50:45;3.00;;;2.20;;
11191;SDS011;5652;48.406;10.820;2022-08-14T11:53:20;2.80;;;2.20;;
11191;SDS011;5652;48.406;10.820;2022-08-14T11:55:54;2.80;;;2.22;;
11191;SDS011;5652;48.406;10.820;2022-08-14T11:58:25;2.20;;;2.00;;
11191;SDS011;5652;48.406;10.820;2022-08-14T12:00:54;2.42;;;2.22;;
11191;SDS011;5652;48.406;10.820;2022-08-14T12:03:33;2.83;;;2.25;;
11191;SDS011;5652;48.406;10.820;2022-08-14T12:06:02;2.38;;;1.98;;
11191;SDS011;5652;48.406;10.820;2022-08-14T12:08:32;2.72;;;2.10;;
11191;SDS011;5652;48.406;10.820;2022-08-14T12:11:01;2.83;;;2.10;;
11191;SDS011;5652;48.406;10.820;2022-08-14T12:13:29;2.65;;;2.00;;
11191;SDS011;5652;48.406;10.820;2022-08-14T12:15:58;3.03;;;2.25;;
11191;SDS011;5652;48.406;10.820;2022-08-14T12:18:29;2.17;;;1.98;;
11191;SDS011;5652;48.406;10.820;2022-08-14T12:21:08;4.10;;;2.15;;
11191;SDS011;5652;48.406;10.820;2022-08-14T12:23:35;2.50;;;2.17;;
11191;SDS011;5652;48.406;10.820;2022-08-14T12:26:05;2.63;;;2.17;;
11191;SDS011;5652;48.406;10.820;2022-08-14T12:28:32;2.35;;;2.10;;
11191;SDS011;5652;48.406;10.820;2022-08-14T12:31:00;2.30;;;2.10;;
11191;SDS011;5652;48.406;10.820;2022-08-14T12:33:37;2.20;;;2.00;;
11191;SDS011;5652;48.406;10.820;2022-08-14T12:36:06;2.00;;;1.80;;
11191;SDS011;5652;48.406;10.820;2022-08-14T12:38:34;2.38;;;2.08;;
11191;SDS011;5652;48.406;10.820;2022-08-14T12:41:02;2.50;;;2.30;;
11191;SDS011;5652;48.406;10.820;2022-08-14T12:43:31;2.55;;;2.30;;
11191;SDS011;5652;48.406;10.820;2022-08-14T12:45:58;3.23;;;2.33;;
11191;SDS011;5652;48.406;10.820;2022-08-14T12:48:26;2.60;;;2.40;;
11191;SDS011;5652;48.406;10.820;2022-08-14T12:50:53;2.30;;;2.10;;
11191;SDS011;5652;48.406;10.820;2022-08-14T12:53:31;3.65;;;2.08;;
11191;SDS011;5652;48.406;10.820;2022-08-14T12:55:59;3.10;;;1.90;;
11191;SDS011;5652;48.406;10.820;2022-08-14T12:58:28;1.92;;;1.80;;
11191;SDS011;5652;48.406;10.820;2022-08-14T13:00:57;1.80;;;1.70;;
11191;SDS011;5652;48.406;10.820;2022-08-14T13:03:27;3.70;;;2.13;;
11191;SDS011;5652;48.406;10.820;2022-08-14T13:05:55;3.10;;;2.13;;
11191;SDS011;5652;48.406;10.820;2022-08-14T13:08:22;2.58;;;2.00;;
11191;SDS011;5652;48.406;10.820;2022-08-14T13:10:50;2.30;;;2.10;;
11191;SDS011;5652;48.406;10.820;2022-08-14T13:13:17;2.78;;;2.17;;
11191;SDS011;5652;48.406;10.820;2022-08-14T13:15:46;2.47;;;2.10;;
11191;SDS011;5652;48.406;10.820;2022-08-14T13:18:18;3.25;;;2.00;;
11191;SDS011;5652;48.406;10.820;2022-08-14T13:20:47;2.15;;;1.80;;
11191;SDS011;5652;48.406;10.820;2022-08-14T13:23:15;2.40;;;1.98;;
11191;SDS011;5652;48.406;10.820;2022-08-14T13:25:43;2.03;;;1.83;;
11191;SDS011;5652;48.406;10.820;2022-08-14T13:28:10;2.50;;;2.00;;
11191;SDS011;5652;48.406;10.820;2022-08-14T13:30:39;2.63;;;2.03;;
11191;SDS011;5652;48.406;10.820;2022-08-14T13:33:07;2.47;;;1.90;;
11191;SDS011;5652;48.406;10.820;2022-08-14T13:35:36;2.65;;;1.98;;
11191;SDS011;5652;48.406;10.820;2022-08-14T13:38:03;2.10;;;1.80;;
11191;SDS011;5652;48.406;10.820;2022-08-14T13:40:30;2.22;;;2.03;;
11191;SDS011;5652;48.406;10.820;2022-08-14T13:42:57;2.90;;;1.92;;
11191;SDS011;5652;48.406;10.820;2022-08-14T13:45:26;2.30;;;1.77;;
11191;SDS011;5652;48.406;10.820;2022-08-14T13:47:53;2.60;;;2.00;;
11191;SDS011;5652;48.406;10.820;2022-08-14T13:50:20;2.72;;;2.10;;
11191;SDS011;5652;48.406;10.820;2022-08-14T13:52:49;2.90;;;2.03;;
11191;SDS011;5652;48.406;10.820;2022-08-14T13:55:19;2.33;;;1.90;;
11191;SDS011;5652;48.406;10.820;2022-08-14T13:57:48;2.10;;;1.90;;
11191;SDS011;5652;48.406;10.820;2022-08-14T14:00:15;2.30;;;2.10;;
11191;SDS011;5652;48.406;10.820;2022-08-14T14:02:44;2.42;;;2.05;;
11191;SDS011;5652;48.406;10.820;2022-08-14T14:05:12;4.30;;;2.20;;
11191;SDS011;5652;48.406;10.820;2022-08-14T14:07:43;2.50;;;1.90;;
11191;SDS011;5652;48.406;10.820;2022-08-14T14:10:13;2.20;;;1.95;;
11191;SDS011;5652;48.406;10.820;2022-08-14T14:12:41;2.30;;;2.10;;
11191;SDS011;5652;48.406;10.820;2022-08-14T14:15:09;1.80;;;1.70;;
11191;SDS011;5652;48.406;10.820;2022-08-14T14:17:37;2.30;;;1.90;;
11191;SDS011;5652;48.406;10.820;2022-08-14T14:20:05;2.30;;;2.10;;
11191;SDS011;5652;48.406;10.820;2022-08-14T14:22:35;3.15;;;2.10;;
11191;SDS011;5652;48.406;10.820;2022-08-14T14:25:05;2.55;;;2.03;;
11191;SDS011;5652;48.406;10.820;2022-08-14T14:27:34;2.45;;;2.15;;
11191;SDS011;5652;48.406;10.820;2022-08-14T14:30:03;2.85;;;2.22;;
11191;SDS011;5652;48.406;10.820;2022-08-14T14:32:30;2.20;;;2.00;;
11191;SDS011;5652;48.406;10.820;2022-08-14T14:34:59;3.42;;;2.20;;
11191;SDS011;5652;48.406;10.820;2022-08-14T14:37:27;2.90;;;2.30;;
11191;SDS011;5652;48.406;10.820;2022-08-14T14:39:55;2.50;;;2.30;;
11191;SDS011;5652;48.406;10.820;2022-08-14T14:42:23;4.30;;;2.20;;
11191;SDS011;5652;48.406;10.820;2022-08-14T14:44:52;3.15;;;2.30;;
11191;SDS011;5652;48.406;10.820;2022-08-14T14:47:22;2.40;;;2.20;;
11191;SDS011;5652;48.406;10.820;2022-08-14T14:49:50;3.10;;;2.10;;
11191;SDS011;5652;48.406;10.820;2022-08-14T14:52:17;2.10;;;1.90;;
11191;SDS011;5652;48.406;10.820;2022-08-14T14:54:48;2.40;;;2.00;;
11191;SDS011;5652;48.406;10.820;2022-08-14T14:57:15;2.30;;;1.90;;